Time;durP1;ratioP1;P1;durP2;ratioP2;P2;SDS_P1;SDS_P2;PMS_P1;PMS_P2;Temp;Humidity;BMP_temperature;BMP_pressure;BME280_temperature;BME280_humidity;BME280_pressure;Samples;Min_cycle;Max_cycle;Signal;HPM_P1;HPM_P2
2022/06/25 00:01:03;;;;;;;88.00;49.42;;;17.00;99.90;;;;;;5036512;28;20064;-82
2022/06/25 00:03:29;;;;;;;85.60;50.28;;;17.00;99.90;;;;;;5036518;28;20045;-83
2022/06/25 00:05:54;;;;;;;102.57;54.17;;;17.00;99.90;;;;;;5036234;28;20045;-83
2022/06/25 00:08:20;;;;;;;95.10;55.42;;;17.00;99.90;;;;;;5034980;28;20477;-83
2022/06/25 00:10:46;;;;;;;98.60;55.22;;;17.00;99.90;;;;;;5036232;28;20053;-83
2022/06/25 00:13:11;;;;;;;84.75;50.33;;;17.00;99.90;;;;;;5036107;28;20076;-82
2022/06/25 00:15:37;;;;;;;98.25;56.85;;;16.90;99.90;;;;;;5036277;28;20049;-82
2022/06/25 00:18:03;;;;;;;103.20;55.53;;;17.00;99.90;;;;;;5036183;28;20033;-83
2022/06/25 00:20:29;;;;;;;96.70;53.60;;;17.00;99.90;;;;;;5036209;28;20074;-82
2022/06/25 00:22:54;;;;;;;102.50;53.95;;;16.90;99.90;;;;;;5036246;28;20037;-83
2022/06/25 00:25:20;;;;;;;101.43;54.83;;;16.90;99.90;;;;;;5034731;28;20045;-82
2022/06/25 00:27:45;;;;;;;107.07;57.60;;;16.90;99.90;;;;;;5036091;28;20041;-82
2022/06/25 00:30:11;;;;;;;114.50;60.35;;;16.90;99.90;;;;;;5035994;28;20048;-82
2022/06/25 00:32:37;;;;;;;110.10;61.22;;;17.00;99.90;;;;;;5035922;28;20132;-82
2022/06/25 00:35:03;;;;;;;113.05;62.22;;;17.00;99.90;;;;;;5036004;28;20037;-82
2022/06/25 00:37:30;;;;;;;116.45;61.75;;;17.00;99.90;;;;;;5034837;28;20084;-82
2022/06/25 00:39:55;;;;;;;106.22;58.25;;;17.00;99.90;;;;;;5035790;28;20038;-82
2022/06/25 00:42:21;;;;;;;110.95;60.45;;;17.00;99.90;;;;;;5034707;28;20049;-82
2022/06/25 00:44:47;;;;;;;115.65;62.60;;;16.90;99.90;;;;;;5047294;28;20056;-82
2022/06/25 00:47:14;;;;;;;107.60;61.33;;;16.90;99.90;;;;;;5055563;28;20037;-82
2022/06/25 00:49:41;;;;;;;108.93;59.72;;;16.90;99.90;;;;;;5037511;28;20040;-82
2022/06/25 00:52:12;;;;;;;113.47;63.05;;;16.90;99.90;;;;;;5055328;28;20040;-82
2022/06/25 00:54:42;;;;;;;114.75;61.85;;;16.90;99.90;;;;;;5055765;28;20076;-82
2022/06/25 00:57:08;;;;;;;113.25;60.78;;;16.90;99.90;;;;;;5055383;28;20587;-82
2022/06/25 00:59:42;;;;;;;116.47;62.15;;;16.90;99.90;;;;;;5055440;28;20119;-82
2022/06/25 01:02:08;;;;;;;102.18;58.05;;;16.90;99.90;;;;;;5055120;28;20396;-82
2022/06/25 01:04:36;;;;;;;108.70;60.10;;;16.90;99.90;;;;;;5055060;28;20480;-83
2022/06/25 01:07:02;;;;;;;112.57;62.65;;;16.90;99.90;;;;;;5055259;28;20051;-82
2022/06/25 01:09:28;;;;;;;109.50;60.85;;;16.90;99.90;;;;;;5055254;28;20045;-82
2022/06/25 01:11:54;;;;;;;115.10;62.75;;;16.90;99.90;;;;;;5055067;28;20041;-83
2022/06/25 01:14:20;;;;;;;106.50;60.85;;;17.00;99.90;;;;;;5037513;28;20048;-83
2022/06/25 01:16:45;;;;;;;105.68;59.40;;;17.00;99.90;;;;;;5037038;28;20385;-83
2022/06/25 01:19:12;;;;;;;104.05;59.63;;;16.90;99.90;;;;;;5055036;28;20132;-83
2022/06/25 01:21:40;;;;;;;113.43;61.58;;;17.00;99.90;;;;;;5054863;28;20140;-83
2022/06/25 01:24:06;;;;;;;110.90;60.20;;;17.00;99.90;;;;;;5037062;28;20056;-83
2022/06/25 01:26:34;;;;;;;110.32;61.03;;;17.00;99.90;;;;;;5054787;28;20512;-83
2022/06/25 01:29:00;;;;;;;109.78;61.08;;;17.00;99.90;;;;;;5054833;28;20072;-83
2022/06/25 01:31:25;;;;;;;108.18;62.63;;;17.00;99.90;;;;;;5036797;28;20045;-83
2022/06/25 01:33:51;;;;;;;109.00;58.33;;;16.90;99.90;;;;;;5036745;28;20049;-83
2022/06/25 01:36:17;;;;;;;99.25;58.60;;;16.90;99.90;;;;;;5054703;28;20477;-83
2022/06/25 01:38:44;;;;;;;100.38;56.90;;;16.90;99.90;;;;;;5054527;28;20126;-83
2022/06/25 01:41:10;;;;;;;104.40;56.63;;;16.90;99.90;;;;;;5054081;28;20476;-83
2022/06/25 01:43:36;;;;;;;94.38;54.13;;;16.90;99.90;;;;;;5036743;28;20053;-82
2022/06/25 01:46:01;;;;;;;87.53;52.78;;;16.80;99.90;;;;;;5036809;28;20049;-83
2022/06/25 01:48:27;;;;;;;95.07;54.92;;;16.80;99.90;;;;;;5054539;28;20080;-83
2022/06/25 01:50:53;;;;;;;97.43;55.58;;;16.80;99.90;;;;;;5036688;28;20063;-83
2022/06/25 01:53:18;;;;;;;89.35;52.50;;;16.80;99.90;;;;;;5054433;28;20037;-83
2022/06/25 01:55:44;;;;;;;99.10;58.63;;;16.80;99.90;;;;;;5036723;28;20045;-83
2022/06/25 01:58:09;;;;;;;93.57;57.13;;;16.70;99.90;;;;;;5036402;28;20059;-83
2022/06/25 02:00:35;;;;;;;88.50;54.35;;;16.70;99.90;;;;;;5054081;28;20040;-83
2022/06/25 02:03:01;;;;;;;91.63;53.35;;;16.70;99.90;;;;;;5036506;28;20049;-83
2022/06/25 02:08:14;;;;;;;91.90;54.08;;;16.60;99.90;;;;;;5054110;28;20044;-83
2022/06/25 02:10:41;;;;;;;95.57;53.63;;;16.60;99.90;;;;;;5053963;28;20388;-83
2022/06/25 02:13:07;;;;;;;88.35;54.08;;;16.60;99.90;;;;;;5035916;28;20110;-83
2022/06/25 02:15:33;;;;;;;93.05;52.97;;;16.60;99.90;;;;;;5036503;28;20075;-84
2022/06/25 02:17:59;;;;;;;89.40;53.33;;;16.60;99.90;;;;;;5054017;28;20075;-83
2022/06/25 02:20:25;;;;;;;95.40;54.45;;;16.60;99.90;;;;;;5053915;28;20040;-83
2022/06/25 02:22:51;;;;;;;91.07;52.35;;;16.60;99.90;;;;;;5036041;28;20053;-83
2022/06/25 02:25:17;;;;;;;95.18;55.83;;;16.50;99.90;;;;;;5036244;28;20056;-83
2022/06/25 02:27:43;;;;;;;95.07;54.80;;;16.60;99.90;;;;;;5053805;28;20057;-83
2022/06/25 02:30:09;;;;;;;89.85;52.67;;;16.50;99.90;;;;;;5053585;28;20037;-83
2022/06/25 02:32:35;;;;;;;91.88;53.95;;;16.50;99.90;;;;;;5053732;28;20044;-83
2022/06/25 02:35:01;;;;;;;83.55;51.30;;;16.50;99.90;;;;;;5053686;28;20457;-83
2022/06/25 02:37:27;;;;;;;91.88;52.67;;;16.50;99.90;;;;;;5053691;28;20033;-83
2022/06/25 02:39:52;;;;;;;86.30;51.25;;;16.50;99.90;;;;;;5035726;28;20374;-83
2022/06/25 02:42:18;;;;;;;86.47;52.60;;;16.50;99.90;;;;;;5053482;28;20064;-83
2022/06/25 02:44:43;;;;;;;93.55;54.28;;;16.50;99.90;;;;;;5053366;28;20088;-83
2022/06/25 02:47:09;;;;;;;85.10;51.75;;;16.40;99.90;;;;;;5035959;28;20053;-83
2022/06/25 02:49:35;;;;;;;84.85;49.90;;;16.40;99.90;;;;;;5035920;28;20404;-83
2022/06/25 02:52:00;;;;;;;90.15;49.95;;;16.40;99.90;;;;;;5034704;28;20045;-83
2022/06/25 02:54:27;;;;;;;83.60;50.35;;;16.40;99.90;;;;;;5053247;28;20056;-83
2022/06/25 02:59:41;;;;;;;88.30;49.17;;;16.40;99.90;;;;;;5035404;28;20103;-83
2022/06/25 03:02:07;;;;;;;73.80;46.78;;;16.40;99.90;;;;;;5035032;28;20052;-83
2022/06/25 03:04:33;;;;;;;82.20;48.00;;;16.40;99.90;;;;;;5035118;28;20045;-83
2022/06/25 03:06:58;;;;;;;78.90;46.95;;;16.40;99.90;;;;;;5033898;28;20051;-83
2022/06/25 03:09:24;;;;;;;78.20;46.60;;;16.40;99.90;;;;;;5052698;28;20063;-83
2022/06/25 03:11:50;;;;;;;78.40;46.70;;;16.40;99.90;;;;;;5053483;28;20076;-83
2022/06/25 03:14:16;;;;;;;73.72;44.60;;;16.40;99.90;;;;;;5035212;28;20076;-83
2022/06/25 03:16:42;;;;;;;76.88;46.55;;;16.30;99.90;;;;;;5053101;28;20063;-83
2022/06/25 03:19:08;;;;;;;78.65;46.17;;;16.30;99.90;;;;;;5035186;28;20057;-83
2022/06/25 03:21:34;;;;;;;75.55;46.40;;;16.30;99.90;;;;;;5035147;28;20053;-83
2022/06/25 03:24:00;;;;;;;68.70;44.45;;;16.30;99.90;;;;;;5035061;28;20045;-84
2022/06/25 03:26:26;;;;;;;71.82;44.13;;;16.30;99.90;;;;;;5035274;28;20045;-83
2022/06/25 03:28:51;;;;;;;66.85;42.42;;;16.40;99.90;;;;;;5053186;28;20124;-83
2022/06/25 03:31:17;;;;;;;66.53;41.45;;;16.30;99.90;;;;;;5053129;28;20041;-83
2022/06/25 03:33:43;;;;;;;67.90;41.60;;;16.40;99.90;;;;;;5053071;28;20475;-84
2022/06/25 03:36:08;;;;;;;62.38;38.97;;;16.40;99.90;;;;;;5052828;28;20473;-84
2022/06/25 03:38:34;;;;;;;65.32;40.72;;;16.40;99.90;;;;;;5053106;28;20087;-84
2022/06/25 03:43:44;;;;;;;68.15;41.20;;;16.40;99.90;;;;;;5034727;28;20489;-83
2022/06/25 03:46:09;;;;;;;66.53;40.47;;;16.40;99.90;;;;;;5034967;28;20052;-83
2022/06/25 03:48:35;;;;;;;64.00;40.72;;;16.40;99.90;;;;;;5052876;28;20041;-83
2022/06/25 03:51:01;;;;;;;63.58;39.75;;;16.30;99.90;;;;;;5052792;28;20052;-83
2022/06/25 03:53:26;;;;;;;59.38;39.17;;;16.40;99.90;;;;;;5052811;28;20099;-83
2022/06/25 03:55:52;;;;;;;64.53;39.88;;;16.40;99.90;;;;;;5052619;28;20045;-83
2022/06/25 03:58:18;;;;;;;62.05;41.13;;;16.40;99.90;;;;;;5052804;28;20107;-83
2022/06/25 04:00:43;;;;;;;60.67;38.97;;;16.40;99.90;;;;;;5052666;28;20114;-83
2022/06/25 04:03:09;;;;;;;58.65;38.08;;;16.30;99.90;;;;;;5053319;28;20124;-82
2022/06/25 04:05:34;;;;;;;60.10;38.83;;;16.30;99.90;;;;;;5056434;28;20075;-82
2022/06/25 04:08:00;;;;;;;66.05;39.65;;;16.30;99.90;;;;;;5038617;28;20094;-83
2022/06/25 04:10:26;;;;;;;60.25;39.50;;;16.40;99.90;;;;;;5056465;28;20373;-82
2022/06/25 04:12:52;;;;;;;60.10;39.85;;;16.40;99.90;;;;;;5056112;28;20120;-83
2022/06/25 04:15:17;;;;;;;65.78;42.45;;;16.40;99.90;;;;;;5056072;28;20052;-83
2022/06/25 04:17:43;;;;;;;62.53;40.08;;;16.40;99.90;;;;;;5056198;28;20037;-83
2022/06/25 04:20:10;;;;;;;62.53;40.60;;;16.50;99.90;;;;;;5056155;28;20476;-82
2022/06/25 04:22:37;;;;;;;57.50;39.42;;;16.60;99.90;;;;;;5056057;28;20086;-83
2022/06/25 04:25:03;;;;;;;53.13;37.15;;;16.60;99.90;;;;;;5055943;28;20040;-83
2022/06/25 04:30:13;;;;;;;54.90;36.88;;;16.70;99.90;;;;;;5055682;28;20037;-83
2022/06/25 04:32:39;;;;;;;58.50;38.33;;;16.80;99.90;;;;;;5055594;28;20052;-82
2022/06/25 04:35:05;;;;;;;53.10;35.33;;;16.80;99.90;;;;;;5037739;28;20052;-82
2022/06/25 04:37:30;;;;;;;53.85;37.17;;;16.90;99.90;;;;;;5055810;28;20099;-82
2022/06/25 04:39:56;;;;;;;52.28;35.05;;;17.00;99.90;;;;;;5055338;28;20429;-82
2022/06/25 04:42:22;;;;;;;50.05;35.13;;;17.10;99.90;;;;;;5055618;28;20028;-83
2022/06/25 04:44:47;;;;;;;54.10;34.97;;;17.20;99.90;;;;;;5034268;28;20497;-83
2022/06/25 04:47:13;;;;;;;49.03;33.63;;;17.20;99.90;;;;;;5035412;28;20386;-83
2022/06/25 04:49:38;;;;;;;49.08;33.60;;;17.30;99.90;;;;;;5035669;28;20056;-82
2022/06/25 04:52:04;;;;;;;44.83;31.92;;;17.30;99.90;;;;;;5035526;28;20037;-83
2022/06/25 04:54:30;;;;;;;51.17;32.65;;;17.30;99.90;;;;;;5035608;28;20507;-83
2022/06/25 04:56:56;;;;;;;42.92;31.50;;;17.40;99.90;;;;;;5035563;28;20057;-83
2022/06/25 04:59:22;;;;;;;46.42;31.30;;;17.40;99.90;;;;;;5035248;28;20045;-82
2022/06/25 05:01:47;;;;;;;43.55;31.55;;;17.50;99.90;;;;;;5035467;28;20056;-83
2022/06/25 05:04:13;;;;;;;49.17;32.08;;;17.50;99.90;;;;;;5035191;28;20128;-84
2022/06/25 05:06:39;;;;;;;44.53;29.85;;;17.70;99.90;;;;;;5033998;28;20049;-83
2022/06/25 05:09:04;;;;;;;43.30;31.33;;;17.60;99.90;;;;;;5035087;28;20156;-83
2022/06/25 05:11:30;;;;;;;40.67;29.20;;;17.60;99.90;;;;;;5034113;28;20065;-83
2022/06/25 05:13:55;;;;;;;40.35;30.02;;;17.70;99.90;;;;;;5034873;28;20120;-83
2022/06/25 05:16:21;;;;;;;40.28;29.20;;;17.70;99.90;;;;;;5034088;28;20453;-83
2022/06/25 05:18:48;;;;;;;38.95;27.58;;;17.80;99.90;;;;;;5033919;28;20521;-82
2022/06/25 05:21:14;;;;;;;38.65;29.20;;;17.80;99.90;;;;;;5034891;28;20053;-83
2022/06/25 05:23:39;;;;;;;38.45;27.40;;;17.90;99.90;;;;;;5035147;28;20045;-84
2022/06/25 05:26:05;;;;;;;34.85;27.20;;;18.00;99.90;;;;;;5033524;28;20083;-84
2022/06/25 05:28:31;;;;;;;39.88;26.52;;;18.10;99.90;;;;;;5034879;28;20046;-83
2022/06/25 05:30:57;;;;;;;36.83;25.90;;;18.20;99.90;;;;;;5034682;28;20061;-83
2022/06/25 05:33:22;;;;;;;33.53;25.13;;;18.30;99.90;;;;;;5033468;28;20045;-83
2022/06/25 05:35:48;;;;;;;36.80;27.42;;;18.30;99.90;;;;;;5034867;28;20485;-84
2022/06/25 05:38:13;;;;;;;32.80;24.70;;;18.40;99.90;;;;;;5034832;28;20432;-84
2022/06/25 05:40:39;;;;;;;33.53;26.38;;;18.50;99.90;;;;;;5033079;28;20046;-84
2022/06/25 05:43:05;;;;;;;31.98;25.30;;;18.60;99.90;;;;;;5033399;28;20053;-83
2022/06/25 05:45:31;;;;;;;30.60;23.65;;;18.70;99.90;;;;;;5033022;28;20057;-83
2022/06/25 05:47:57;;;;;;;32.45;23.73;;;18.70;99.90;;;;;;5034564;28;20046;-84
2022/06/25 05:50:23;;;;;;;30.30;23.90;;;18.80;99.90;;;;;;5034514;28;20041;-83
2022/06/25 05:52:48;;;;;;;30.50;23.02;;;18.90;99.90;;;;;;5034322;28;20094;-83
2022/06/25 05:55:14;;;;;;;32.45;23.73;;;19.00;99.90;;;;;;5034319;28;20111;-83
2022/06/25 05:57:40;;;;;;;29.83;24.08;;;19.20;99.90;;;;;;5034109;28;20042;-83
2022/06/25 06:00:08;;;;;;;29.15;22.08;;;19.30;99.90;;;;;;5034347;28;20037;-84
2022/06/25 06:02:34;;;;;;;31.92;22.55;;;19.40;99.90;;;;;;5034140;28;20041;-84
2022/06/25 06:05:00;;;;;;;27.35;22.38;;;19.60;99.90;;;;;;5034316;28;20043;-83
2022/06/25 06:07:25;;;;;;;28.52;21.98;;;19.70;99.90;;;;;;5034290;28;20452;-83
2022/06/25 06:09:51;;;;;;;25.67;21.23;;;19.80;99.90;;;;;;5034176;28;20038;-84
2022/06/25 06:12:17;;;;;;;27.05;21.83;;;19.80;99.90;;;;;;5032508;28;20045;-84
2022/06/25 06:14:42;;;;;;;28.23;21.27;;;20.00;99.90;;;;;;5032827;28;20077;-82
2022/06/25 06:17:08;;;;;;;23.40;19.52;;;19.90;99.90;;;;;;5033849;28;20068;-83
2022/06/25 06:19:33;;;;;;;26.95;19.55;;;20.20;99.90;;;;;;5032912;28;20045;-83
2022/06/25 06:21:59;;;;;;;25.33;18.90;;;20.40;99.90;;;;;;5033903;28;20045;-83
2022/06/25 06:24:25;;;;;;;24.98;20.15;;;20.50;99.90;;;;;;5032636;28;20052;-83
2022/06/25 06:26:50;;;;;;;26.88;18.55;;;20.70;99.90;;;;;;5033692;28;20080;-83
2022/06/25 06:29:17;;;;;;;23.70;17.35;;;20.60;99.90;;;;;;5043053;28;20128;-83
2022/06/25 06:31:43;;;;;;;25.77;16.90;;;20.80;99.90;;;;;;5033787;28;20045;-82
2022/06/25 06:34:09;;;;;;;22.33;15.90;;;20.80;99.90;;;;;;5033338;28;20076;-83
2022/06/25 06:36:34;;;;;;;23.42;15.98;;;20.80;99.90;;;;;;5032164;28;20523;-83
2022/06/25 06:39:01;;;;;;;25.23;16.98;;;20.90;99.90;;;;;;5032401;28;20057;-82
2022/06/25 06:41:27;;;;;;;21.52;16.30;;;21.00;99.90;;;;;;5033342;28;20489;-82
2022/06/25 06:43:52;;;;;;;22.17;14.18;;;20.90;99.90;;;;;;5037608;28;20049;-81
2022/06/25 06:46:19;;;;;;;22.10;14.55;;;21.00;99.90;;;;;;5053463;28;20396;-81
2022/06/25 06:48:44;;;;;;;21.48;15.07;;;21.00;99.90;;;;;;5035322;28;20044;-82
2022/06/25 06:51:10;;;;;;;21.88;14.65;;;21.10;99.90;;;;;;5053152;28;20049;-83
2022/06/25 06:53:36;;;;;;;22.88;13.88;;;21.20;99.90;;;;;;5053024;28;20382;-82
2022/06/25 06:56:02;;;;;;;21.00;13.45;;;21.30;99.90;;;;;;5053269;28;20033;-81
2022/06/25 06:58:29;;;;;;;17.92;13.70;;;21.30;99.90;;;;;;5035583;28;20053;-82
2022/06/25 07:00:55;;;;;;;18.23;13.88;;;21.40;99.90;;;;;;5035207;28;20132;-82
2022/06/25 07:03:21;;;;;;;20.08;14.05;;;21.60;99.90;;;;;;5053325;28;20068;-81
2022/06/25 07:05:46;;;;;;;21.15;13.98;;;21.50;99.90;;;;;;5053242;28;20526;-82
2022/06/25 07:08:12;;;;;;;17.98;12.40;;;21.70;99.90;;;;;;5052992;28;20120;-82
2022/06/25 07:10:38;;;;;;;19.98;12.80;;;21.60;99.90;;;;;;5052832;28;20057;-82
2022/06/25 07:13:03;;;;;;;18.67;12.35;;;21.80;99.90;;;;;;5052966;28;20048;-80
2022/06/25 07:15:29;;;;;;;19.08;12.77;;;21.70;99.90;;;;;;5053195;28;20041;-82
2022/06/25 07:17:55;;;;;;;17.50;12.43;;;21.60;99.90;;;;;;5035366;28;20718;-83
2022/06/25 07:20:20;;;;;;;24.80;13.00;;;21.70;99.90;;;;;;5052881;28;20041;-82
2022/06/25 07:22:46;;;;;;;21.42;13.13;;;21.70;99.90;;;;;;5053102;28;20128;-83
2022/06/25 07:25:13;;;;;;;18.55;11.30;;;21.80;99.90;;;;;;5035139;28;20072;-83
2022/06/25 07:27:39;;;;;;;18.30;11.73;;;22.00;99.90;;;;;;5053057;28;20068;-82
2022/06/25 07:30:05;;;;;;;18.55;11.07;;;22.10;99.90;;;;;;5052744;28;20489;-81
2022/06/25 07:32:31;;;;;;;16.00;10.93;;;22.40;99.90;;;;;;5053006;28;20083;-83
2022/06/25 07:34:57;;;;;;;17.70;12.23;;;22.30;99.90;;;;;;5052728;28;20077;-81
2022/06/25 07:37:22;;;;;;;18.52;11.25;;;22.30;99.90;;;;;;5052762;28;20106;-81
2022/06/25 07:39:48;;;;;;;17.58;11.32;;;22.50;99.90;;;;;;5038156;28;20053;-82
2022/06/25 07:42:14;;;;;;;16.83;11.35;;;22.40;99.90;;;;;;5038477;28;20049;-80
2022/06/25 07:44:39;;;;;;;14.32;11.30;;;22.50;99.90;;;;;;5064205;28;20055;-80
2022/06/25 07:47:05;;;;;;;15.35;11.82;;;22.40;99.90;;;;;;5066466;28;20063;-80
2022/06/25 07:51:56;;;;;;;16.88;11.98;;;22.30;99.90;;;;;;5076470;28;20084;-80
2022/06/25 07:52:16;;;;;;;17.00;10.68;;;22.40;99.90;;;;;;5076127;28;20048;-81
2022/06/25 07:54:42;;;;;;;15.40;11.73;;;22.60;99.90;;;;;;5075324;28;20058;-80
2022/06/25 07:57:08;;;;;;;18.65;12.77;;;22.60;99.90;;;;;;5074936;28;20057;-80
2022/06/25 07:59:33;;;;;;;17.98;12.70;;;22.50;99.90;;;;;;5076308;28;20041;-81
2022/06/25 08:01:59;;;;;;;18.98;13.65;;;22.60;99.90;;;;;;5075167;28;20051;-81
2022/06/25 08:04:25;;;;;;;16.45;13.05;;;22.70;99.90;;;;;;5076358;28;20527;-80
2022/06/25 08:06:51;;;;;;;18.67;14.93;;;22.80;99.90;;;;;;5076213;28;20123;-80
2022/06/25 08:09:16;;;;;;;16.65;14.70;;;22.70;99.90;;;;;;5074774;28;20563;-81
2022/06/25 08:11:42;;;;;;;17.88;14.02;;;22.70;99.90;;;;;;5075916;28;20131;-80
2022/06/25 08:14:07;;;;;;;16.40;14.27;;;22.80;99.90;;;;;;5075529;28;20155;-80
2022/06/25 08:16:33;;;;;;;16.33;14.23;;;23.00;99.90;;;;;;5075727;28;20049;-80
2022/06/25 08:18:59;;;;;;;17.98;13.88;;;23.00;99.90;;;;;;5058017;28;20048;-80
2022/06/25 08:21:25;;;;;;;15.90;13.65;;;23.00;99.90;;;;;;5058133;28;20059;-80
2022/06/25 08:23:51;;;;;;;22.20;13.65;;;22.90;99.90;;;;;;5057548;28;20044;-81
2022/06/25 08:26:17;;;;;;;13.90;12.45;;;22.80;99.90;;;;;;5075477;28;20478;-81
2022/06/25 08:28:44;;;;;;;15.23;12.25;;;22.70;99.90;;;;;;5074617;28;20128;-80
2022/06/25 08:31:10;;;;;;;15.48;13.23;;;22.60;99.90;;;;;;5074371;28;20392;-79
2022/06/25 08:33:36;;;;;;;15.85;12.07;;;22.40;99.90;;;;;;5069655;28;20067;-79
2022/06/25 08:36:02;;;;;;;13.68;10.80;;;22.30;99.90;;;;;;5054615;28;20049;-79
2022/06/25 08:38:27;;;;;;;12.30;9.50;;;22.20;99.90;;;;;;5057528;28;20040;-80
2022/06/25 08:40:58;;;;;;;10.95;9.70;;;22.20;99.90;;;;;;5057559;28;20123;-80
2022/06/25 08:43:24;;;;;;;11.73;9.40;;;22.30;99.90;;;;;;5075216;28;20049;-80
2022/06/25 08:45:51;;;;;;;12.23;9.48;;;22.30;99.90;;;;;;5075807;28;20385;-80
2022/06/25 08:48:22;;;;;;;12.73;8.50;;;22.30;99.90;;;;;;5058582;28;20052;-80
2022/06/25 08:50:49;;;;;;;10.95;7.78;;;22.50;99.90;;;;;;5056247;28;20139;-80
2022/06/25 08:53:15;;;;;;;10.05;6.57;;;22.90;99.90;;;;;;5057418;28;20492;-80
2022/06/25 08:55:41;;;;;;;8.70;6.88;;;23.30;99.90;;;;;;5074752;28;20048;-80
2022/06/25 08:58:09;;;;;;;11.93;8.25;;;23.50;99.90;;;;;;5075340;28;20072;-80
2022/06/25 09:00:37;;;;;;;9.35;6.63;;;23.60;99.90;;;;;;5075162;28;20071;-80
2022/06/25 09:03:04;;;;;;;10.57;6.65;;;23.90;99.90;;;;;;5075216;28;20048;-80
2022/06/25 09:05:51;;;;;;;11.48;8.43;;;24.00;99.90;;;;;;5074915;28;20048;-80
2022/06/25 09:08:17;;;;;;;9.80;8.25;;;23.90;99.90;;;;;;5074389;28;20045;-79
2022/06/25 09:10:47;;;;;;;17.65;8.30;;;23.50;99.90;;;;;;5073841;28;20048;-79
2022/06/25 09:13:14;;;;;;;13.05;9.48;;;23.20;99.90;;;;;;5074948;28;20115;-80
2022/06/25 09:15:45;;;;;;;13.23;9.38;;;22.80;99.90;;;;;;5074438;28;20044;-79
2022/06/25 09:18:14;;;;;;;11.93;9.07;;;22.60;99.90;;;;;;5074081;28;20135;-79
2022/06/25 09:21:02;;;;;;;9.50;8.07;;;22.30;99.90;;;;;;5056599;28;20125;-80
2022/06/25 09:23:30;;;;;;;15.10;9.27;;;22.30;99.90;;;;;;5056720;28;20044;-79
2022/06/25 09:26:08;;;;;;;12.00;8.82;;;22.60;99.90;;;;;;5074330;28;20041;-79
2022/06/25 09:28:37;;;;;;;16.48;10.13;;;22.80;99.90;;;;;;5074538;28;20127;-80
2022/06/25 09:31:03;;;;;;;14.07;8.73;;;23.00;99.90;;;;;;5074498;28;20049;-79
2022/06/25 09:33:34;;;;;;;10.30;8.45;;;23.10;99.90;;;;;;5074547;28;20045;-79
2022/06/25 09:36:00;;;;;;;13.23;8.90;;;23.40;99.90;;;;;;5056604;28;20063;-79
2022/06/25 09:38:26;;;;;;;9.90;8.38;;;23.50;99.90;;;;;;5055331;28;20036;-80
2022/06/25 09:40:54;;;;;;;13.68;8.75;;;23.80;99.90;;;;;;5073732;28;20051;-79
2022/06/25 09:43:35;;;;;;;18.23;9.10;;;23.80;99.90;;;;;;5074441;28;20040;-80
2022/06/25 09:46:06;;;;;;;10.85;8.00;;;23.90;99.90;;;;;;5074462;28;20051;-80
2022/06/25 09:48:35;;;;;;;13.73;8.15;;;24.00;99.90;;;;;;5073549;28;20045;-79
2022/06/25 09:51:20;;;;;;;14.23;9.25;;;24.10;99.90;;;;;;5073948;28;20045;-79
2022/06/25 09:53:53;;;;;;;14.38;7.22;;;24.00;99.90;;;;;;5074227;28;20124;-79
2022/06/25 09:56:27;;;;;;;11.43;7.50;;;24.20;99.90;;;;;;5074011;28;20040;-79
2022/06/25 09:58:54;;;;;;;14.00;7.88;;;24.40;99.90;;;;;;5073948;28;20036;-79
2022/06/25 10:01:23;;;;;;;12.63;7.57;;;24.40;99.90;;;;;;5073673;28;20040;-79
2022/06/25 10:03:50;;;;;;;9.98;6.68;;;24.60;99.90;;;;;;5074092;28;20037;-79
2022/06/25 10:06:16;;;;;;;9.88;8.13;;;24.80;99.90;;;;;;5073989;28;20063;-79
2022/06/25 10:09:03;;;;;;;12.55;8.13;;;24.80;99.90;;;;;;5073729;28;20506;-78
2022/06/25 10:11:34;;;;;;;9.18;6.97;;;24.90;99.90;;;;;;5073567;28;20595;-78
2022/06/25 10:14:00;;;;;;;10.05;7.40;;;25.00;99.90;;;;;;5073588;28;20045;-80
2022/06/25 10:16:28;;;;;;;11.90;7.65;;;25.30;99.90;;;;;;5073623;28;20048;-79
2022/06/25 10:18:55;;;;;;;9.88;7.50;;;25.20;99.90;;;;;;5067786;28;20064;-79
2022/06/25 10:21:22;;;;;;;12.02;7.22;;;24.80;99.90;;;;;;5062440;28;20480;-79
2022/06/25 10:24:01;;;;;;;11.52;6.97;;;24.50;99.90;;;;;;5073477;28;20066;-78
2022/06/25 10:26:27;;;;;;;13.32;7.82;;;24.20;99.90;;;;;;5053583;28;20044;-78
2022/06/25 10:28:53;;;;;;;12.50;7.50;;;24.10;99.90;;;;;;5059006;28;20040;-79
2022/06/25 10:31:19;;;;;;;9.75;6.75;;;23.90;99.90;;;;;;5073375;28;20052;-79
2022/06/25 10:33:55;;;;;;;9.23;6.80;;;23.80;99.90;;;;;;5072019;28;20045;-79
2022/06/25 10:36:51;;;;;;;10.82;6.82;;;23.70;99.90;;;;;;5073211;28;20048;-79
2022/06/25 10:39:26;;;;;;;9.00;6.68;;;23.80;99.90;;;;;;5072162;28;20063;-79
2022/06/25 10:45:04;;;;;;;9.65;6.43;;;23.70;99.90;;;;;;5071824;28;20045;-79
2022/06/25 10:47:58;;;;;;;9.70;5.68;;;23.70;99.90;;;;;;5071982;28;20149;-79
2022/06/25 10:50:27;;;;;;;10.98;6.47;;;23.50;99.90;;;;;;5072610;28;20553;-79
2022/06/25 10:53:02;;;;;;;9.98;6.55;;;23.50;99.90;;;;;;5035341;28;20447;-79
2022/06/25 10:55:58;;;;;;;11.75;7.65;;;23.60;99.90;;;;;;5053152;28;20051;-80
2022/06/25 10:58:40;;;;;;;9.57;7.72;;;23.60;99.90;;;;;;5034359;28;20057;-79
2022/06/25 11:01:05;;;;;;;9.30;7.75;;;24.00;99.90;;;;;;5066156;28;20040;-79
2022/06/25 11:03:34;;;;;;;11.82;7.03;;;24.20;99.90;;;;;;5073234;28;20056;-79
2022/06/25 11:06:22;;;;;;;10.25;7.60;;;24.40;99.90;;;;;;5055020;28;20044;-78
2022/06/25 11:08:48;;;;;;;9.63;5.75;;;24.30;99.90;;;;;;5055413;28;20488;-79
2022/06/25 11:11:26;;;;;;;9.77;4.90;;;24.40;99.90;;;;;;5069760;28;20369;-79
2022/06/25 11:13:52;;;;;;;9.25;5.45;;;24.30;99.90;;;;;;5074666;28;20049;-79
2022/06/25 11:16:19;;;;;;;9.57;5.47;;;24.10;99.90;;;;;;5077266;28;20036;-79
2022/06/25 11:18:50;;;;;;;14.57;5.97;;;24.00;99.90;;;;;;5076546;28;20105;-79
2022/06/25 11:21:31;;;;;;;7.80;5.50;;;23.70;99.90;;;;;;5077058;28;20049;-79
2022/06/25 11:24:09;;;;;;;13.13;5.75;;;23.60;99.90;;;;;;5058738;28;20076;-79
2022/06/25 11:29:25;;;;;;;9.40;7.00;;;23.40;99.90;;;;;;5077013;28;20040;-79
2022/06/25 11:31:52;;;;;;;10.30;4.47;;;23.40;99.90;;;;;;5076777;28;20048;-79
2022/06/25 11:34:22;;;;;;;10.80;3.38;;;23.40;99.90;;;;;;5058656;28;20087;-88
2022/06/25 11:37:04;;;;;;;13.25;3.10;;;23.10;99.90;;;;;;5076829;28;20074;-77
2022/06/25 11:39:30;;;;;;;13.68;3.72;;;23.10;99.90;;;;;;5076717;28;20072;-76
2022/06/25 11:41:56;;;;;;;8.32;2.70;;;22.80;99.90;;;;;;5076454;28;20399;-76
2022/06/25 11:44:23;;;;;;;9.38;2.42;;;22.60;99.90;;;;;;5076107;28;20460;-79
2022/06/25 11:46:49;;;;;;;8.70;2.58;;;22.50;99.90;;;;;;5076646;28;20126;-79
2022/06/25 11:49:16;;;;;;;9.60;2.22;;;22.40;99.90;;;;;;5057428;28;20052;-79
2022/06/25 11:52:04;;;;;;;8.73;2.72;;;22.30;99.90;;;;;;5073500;28;20044;-80
2022/06/25 11:54:31;;;;;;;6.90;2.95;;;22.30;99.90;;;;;;5056167;28;20144;-78
2022/06/25 11:56:57;;;;;;;8.10;2.92;;;22.20;99.90;;;;;;5042619;28;20076;-80
2022/06/25 11:59:28;;;;;;;9.10;3.10;;;22.20;99.90;;;;;;5065707;28;20090;-79
2022/06/25 12:01:54;;;;;;;6.65;2.70;;;22.10;99.90;;;;;;5074740;28;20040;-79
2022/06/25 12:04:20;;;;;;;10.38;3.33;;;22.20;99.90;;;;;;5058036;28;20048;-79
2022/06/25 12:06:48;;;;;;;11.32;3.65;;;22.20;99.90;;;;;;5076213;28;20111;-78
2022/06/25 12:09:18;;;;;;;10.98;3.00;;;22.10;99.90;;;;;;5058330;28;20094;-79
2022/06/25 12:11:52;;;;;;;11.88;3.40;;;22.10;99.90;;;;;;5076192;28;20032;-79
2022/06/25 12:14:25;;;;;;;9.25;2.95;;;22.10;99.90;;;;;;5076099;28;20114;-78
2022/06/25 12:16:52;;;;;;;15.20;3.75;;;22.30;99.90;;;;;;5075723;28;20047;-79
2022/06/25 12:19:18;;;;;;;8.63;3.63;;;22.30;99.90;;;;;;5057736;28;20430;-79
2022/06/25 12:21:44;;;;;;;13.05;4.25;;;22.20;99.90;;;;;;5075443;28;20048;-79
2022/06/25 12:24:15;;;;;;;12.45;4.32;;;22.20;99.90;;;;;;5074444;28;20048;-80
2022/06/25 12:26:43;;;;;;;7.13;3.72;;;22.10;99.90;;;;;;5075791;28;20044;-81
2022/06/25 12:29:15;;;;;;;10.60;5.20;;;22.30;99.90;;;;;;5075730;28;20059;-81
2022/06/25 12:31:59;;;;;;;9.53;4.13;;;22.50;99.90;;;;;;5074700;28;20518;-78
2022/06/25 12:34:26;;;;;;;11.15;4.00;;;22.50;99.90;;;;;;5074285;28;20055;-80
2022/06/25 12:36:52;;;;;;;12.85;4.50;;;22.40;99.90;;;;;;5075485;28;20048;-79
2022/06/25 12:39:36;;;;;;;12.18;4.60;;;22.30;99.90;;;;;;5075548;28;20123;-79
2022/06/25 12:42:10;;;;;;;10.85;5.32;;;22.10;99.90;;;;;;5075246;28;20078;-80
2022/06/25 12:44:37;;;;;;;12.95;4.80;;;21.90;99.90;;;;;;5075368;28;20143;-80
2022/06/25 12:47:07;;;;;;;8.43;5.22;;;21.90;99.90;;;;;;5075206;28;20395;-81
2022/06/25 12:49:47;;;;;;;13.18;5.63;;;21.80;99.90;;;;;;5075017;28;20045;-80